Time;durP1;ratioP1;P1;durP2;ratioP2;P2;SDS_P1;SDS_P2;PMS_P1;PMS_P2;Temp;Humidity;BMP_temperature;BMP_pressure;BME280_temperature;BME280_humidity;BME280_pressure;Samples;Min_cycle;Max_cycle;Signal;HPM_P1;HPM_P2
2023/09/29 00:00:31;;;;;;;6.75;3.85;;;19.50;1.00;;;;;;5116566;28;20179;-74
2023/09/29 00:02:57;;;;;;;4.38;3.25;;;19.50;1.00;;;;;;5116175;28;20159;-74
2023/09/29 00:05:23;;;;;;;6.65;3.40;;;19.50;1.00;;;;;;5116093;28;20213;-74
2023/09/29 00:07:51;;;;;;;6.43;3.85;;;19.50;1.00;;;;;;5115837;28;20207;-74
2023/09/29 00:10:17;;;;;;;6.03;3.40;;;19.60;1.00;;;;;;5116197;28;20185;-74
2023/09/29 00:12:43;;;;;;;6.85;3.10;;;19.60;1.00;;;;;;5116388;28;20705;-74
2023/09/29 00:15:10;;;;;;;6.13;2.90;;;19.50;1.00;;;;;;5115016;28;20167;-74
2023/09/29 00:17:36;;;;;;;7.07;3.60;;;19.50;1.00;;;;;;5116259;28;20698;-74
2023/09/29 00:20:24;;;;;;;7.65;3.50;;;19.50;1.00;;;;;;5116285;28;20167;-73
2023/09/29 00:22:52;;;;;;;8.15;3.30;;;19.50;1.00;;;;;;5115454;28;20658;-74
2023/09/29 00:25:18;;;;;;;10.75;3.72;;;19.50;1.00;;;;;;5116045;28;20175;-74
2023/09/29 00:27:44;;;;;;;7.38;3.75;;;19.50;1.00;;;;;;5116039;28;20195;-74
2023/09/29 00:30:12;;;;;;;6.03;3.58;;;19.50;1.00;;;;;;5116151;28;20168;-74
2023/09/29 00:32:57;;;;;;;9.05;3.55;;;19.50;1.00;;;;;;5116060;28;20243;-74
2023/09/29 00:37:56;;;;;;;7.15;3.30;;;19.40;1.00;;;;;;5114974;28;20183;-74
2023/09/29 00:40:22;;;;;;;8.48;3.20;;;19.40;1.00;;;;;;5114588;28;20532;-74
2023/09/29 00:42:52;;;;;;;6.20;3.25;;;19.40;1.00;;;;;;5115854;28;20250;-75
2023/09/29 00:45:24;;;;;;;6.15;3.22;;;19.40;1.00;;;;;;5115718;28;20167;-75
2023/09/29 00:47:57;;;;;;;4.93;2.95;;;19.40;1.00;;;;;;5115659;28;20203;-74
2023/09/29 00:50:26;;;;;;;8.45;2.90;;;19.40;1.00;;;;;;5115548;28;20258;-73
2023/09/29 00:52:54;;;;;;;8.05;3.55;;;19.50;1.00;;;;;;5115214;28;20163;-74
2023/09/29 00:55:26;;;;;;;6.28;3.15;;;19.50;1.00;;;;;;5115611;28;20308;-74
2023/09/29 00:57:52;;;;;;;8.13;3.38;;;19.50;1.00;;;;;;5115518;28;20217;-74
2023/09/29 01:02:56;;;;;;;6.35;2.72;;;19.60;1.00;;;;;;5115451;28;20171;-75
2023/09/29 01:05:21;;;;;;;6.30;2.83;;;19.60;1.00;;;;;;5115363;28;20168;-74
2023/09/29 01:07:47;;;;;;;6.20;2.78;;;19.50;1.00;;;;;;5114918;28;20563;-75
2023/09/29 01:10:13;;;;;;;6.00;3.05;;;19.60;1.00;;;;;;5115423;28;20224;-73
2023/09/29 01:12:40;;;;;;;8.90;3.25;;;19.60;1.00;;;;;;5115295;28;20167;-73
2023/09/29 01:15:06;;;;;;;5.53;2.92;;;19.60;1.00;;;;;;5114993;28;20236;-75
2023/09/29 01:17:32;;;;;;;6.72;2.63;;;19.70;1.00;;;;;;5115379;28;20178;-74
2023/09/29 01:19:58;;;;;;;4.97;2.50;;;19.60;1.00;;;;;;5115102;28;20534;-74
2023/09/29 01:22:23;;;;;;;5.32;2.83;;;19.60;1.00;;;;;;5114355;28;20776;-74
2023/09/29 01:24:49;;;;;;;6.07;2.97;;;19.50;1.00;;;;;;5114950;28;20220;-74
2023/09/29 01:27:15;;;;;;;4.63;2.53;;;19.50;1.00;;;;;;5114826;28;20229;-75
2023/09/29 01:29:44;;;;;;;4.80;2.47;;;19.50;1.00;;;;;;5114703;28;20172;-75
2023/09/29 01:32:14;;;;;;;7.72;3.10;;;19.50;1.00;;;;;;5115155;27;20525;-74
2023/09/29 01:34:40;;;;;;;6.35;2.60;;;19.50;1.00;;;;;;5114903;28;20170;-74
2023/09/29 01:37:05;;;;;;;5.32;2.90;;;19.50;1.00;;;;;;5114655;28;20175;-73
2023/09/29 01:39:31;;;;;;;4.70;2.33;;;19.50;1.00;;;;;;5114682;28;20167;-73
2023/09/29 01:41:58;;;;;;;6.82;2.55;;;19.50;1.00;;;;;;5114523;28;20199;-74
2023/09/29 01:44:24;;;;;;;4.15;2.22;;;19.50;1.00;;;;;;5114512;28;20163;-73
2023/09/29 01:46:50;;;;;;;5.43;2.80;;;19.60;1.00;;;;;;5114451;28;20530;-74
2023/09/29 01:49:16;;;;;;;5.72;2.70;;;19.60;1.00;;;;;;5114553;28;20179;-74
2023/09/29 01:51:44;;;;;;;5.80;2.60;;;19.60;1.00;;;;;;5114004;28;20193;-74
2023/09/29 01:54:09;;;;;;;5.10;2.70;;;19.60;1.00;;;;;;5114446;28;20187;-74
2023/09/29 01:56:35;;;;;;;4.65;2.80;;;19.60;1.00;;;;;;5114457;28;20182;-73
2023/09/29 01:59:02;;;;;;;4.75;2.60;;;19.60;1.00;;;;;;5114173;28;20653;-74
2023/09/29 02:01:28;;;;;;;5.60;2.80;;;19.60;1.00;;;;;;5114178;28;20167;-73
2023/09/29 02:03:54;;;;;;;5.25;2.47;;;19.60;2.20;;;;;;5114157;28;20208;-74
2023/09/29 02:06:20;;;;;;;4.25;2.80;;;19.60;4.20;;;;;;5113749;28;20171;-73
2023/09/29 02:08:45;;;;;;;6.00;2.47;;;19.70;7.80;;;;;;5114108;28;20174;-73
2023/09/29 02:11:12;;;;;;;4.40;2.40;;;19.60;10.20;;;;;;5113835;28;20553;-73
2023/09/29 02:13:38;;;;;;;5.30;2.75;;;19.70;12.00;;;;;;5114059;28;20186;-74
2023/09/29 02:16:12;;;;;;;4.30;2.65;;;19.70;10.20;;;;;;5113836;28;20324;-74
2023/09/29 02:18:38;;;;;;;3.90;2.40;;;19.80;13.80;;;;;;5113957;28;20250;-73
2023/09/29 02:21:06;;;;;;;5.00;2.47;;;19.80;11.80;;;;;;5113397;28;20215;-73
2023/09/29 02:23:33;;;;;;;5.45;2.45;;;19.80;11.80;;;;;;5113953;28;20163;-73
2023/09/29 02:26:00;;;;;;;5.32;2.28;;;19.80;14.20;;;;;;5113776;28;20159;-74
2023/09/29 02:28:30;;;;;;;5.72;2.30;;;19.90;17.60;;;;;;5113755;28;20209;-74
2023/09/29 02:31:02;;;;;;;3.95;2.42;;;19.80;20.30;;;;;;5113793;28;20645;-73
2023/09/29 02:33:28;;;;;;;3.10;2.40;;;19.90;26.10;;;;;;5113568;28;20639;-73
2023/09/29 02:35:53;;;;;;;3.60;2.40;;;19.90;27.00;;;;;;5113786;28;20168;-73
2023/09/29 02:38:19;;;;;;;3.70;2.22;;;19.90;28.30;;;;;;5113507;28;20171;-73
2023/09/29 02:40:48;;;;;;;5.20;2.50;;;19.90;35.60;;;;;;5113459;28;20216;-74
2023/09/29 02:43:13;;;;;;;3.42;2.22;;;19.90;35.70;;;;;;5113995;28;20178;-72
2023/09/29 02:45:40;;;;;;;4.70;2.38;;;20.00;38.50;;;;;;5113591;28;20167;-73
2023/09/29 02:48:06;;;;;;;5.70;2.80;;;20.00;41.30;;;;;;5113072;28;20210;-74
2023/09/29 02:50:35;;;;;;;5.63;2.28;;;20.00;42.40;;;;;;5113295;28;20163;-74
2023/09/29 02:53:03;;;;;;;4.57;2.80;;;20.10;43.80;;;;;;5113455;28;20265;-74
2023/09/29 02:55:28;;;;;;;4.20;2.65;;;20.10;47.30;;;;;;5113560;28;20163;-74
2023/09/29 02:57:54;;;;;;;3.63;2.50;;;20.10;51.30;;;;;;5113384;28;20252;-75
2023/09/29 03:00:23;;;;;;;4.53;2.55;;;20.00;54.40;;;;;;5115992;28;20216;-75
2023/09/29 03:02:51;;;;;;;4.20;2.60;;;20.00;54.60;;;;;;5117410;28;20174;-75
2023/09/29 03:05:18;;;;;;;3.47;2.25;;;20.10;58.70;;;;;;5117438;28;20231;-75
2023/09/29 03:07:43;;;;;;;4.20;2.70;;;20.10;58.70;;;;;;5117413;28;20772;-73
2023/09/29 03:10:12;;;;;;;3.75;2.42;;;20.10;64.00;;;;;;5117542;28;20167;-73
2023/09/29 03:12:38;;;;;;;4.35;2.72;;;20.10;69.70;;;;;;5117567;28;20168;-74
2023/09/29 03:15:09;;;;;;;3.60;2.58;;;20.00;76.10;;;;;;5117433;28;20243;-74
2023/09/29 03:17:35;;;;;;;5.88;2.83;;;20.00;80.60;;;;;;5116411;28;20224;-74
2023/09/29 03:20:10;;;;;;;3.00;2.70;;;20.00;85.50;;;;;;5117651;28;20187;-74
2023/09/29 03:22:39;;;;;;;5.13;2.50;;;20.00;90.00;;;;;;5117139;28;20210;-74
2023/09/29 03:25:06;;;;;;;4.35;2.30;;;20.00;92.10;;;;;;5117067;28;20177;-74
2023/09/29 03:27:32;;;;;;;4.80;2.67;;;20.00;92.90;;;;;;5117015;28;20195;-74
2023/09/29 03:29:59;;;;;;;3.40;2.50;;;20.00;93.30;;;;;;5116924;28;20167;-74
2023/09/29 03:32:25;;;;;;;5.00;2.65;;;20.10;95.10;;;;;;5116417;28;20525;-74
2023/09/29 03:34:50;;;;;;;3.90;2.80;;;20.10;95.10;;;;;;5116795;28;20179;-74
2023/09/29 03:37:16;;;;;;;3.78;2.80;;;20.20;95.80;;;;;;5115633;28;20572;-73
2023/09/29 03:39:42;;;;;;;3.45;2.58;;;20.20;97.00;;;;;;5117055;28;20247;-74
2023/09/29 03:42:08;;;;;;;4.43;2.92;;;20.20;97.90;;;;;;5116735;28;20529;-75
2023/09/29 03:44:33;;;;;;;2.58;2.38;;;20.20;98.40;;;;;;5116659;28;20175;-74
2023/09/29 03:47:00;;;;;;;4.68;2.70;;;20.20;99.80;;;;;;5116188;28;20670;-74
2023/09/29 03:49:26;;;;;;;4.70;2.30;;;20.10;99.90;;;;;;5116501;28;20185;-75
2023/09/29 03:51:52;;;;;;;5.53;2.60;;;20.10;99.90;;;;;;5116279;28;20632;-74
2023/09/29 03:54:18;;;;;;;3.30;2.78;;;20.20;99.90;;;;;;5116512;28;20183;-74
2023/09/29 03:56:44;;;;;;;2.67;2.40;;;20.20;99.90;;;;;;5116470;28;20691;-73
2023/09/29 03:59:10;;;;;;;2.65;2.40;;;20.20;99.90;;;;;;5116412;28;20164;-75
2023/09/29 04:01:36;;;;;;;6.35;2.50;;;20.20;99.90;;;;;;5115960;28;20191;-75
2023/09/29 04:04:02;;;;;;;4.65;2.83;;;20.30;99.90;;;;;;5116329;28;20515;-74
2023/09/29 04:06:29;;;;;;;2.95;2.67;;;20.30;99.90;;;;;;5114580;28;20199;-74
2023/09/29 04:08:55;;;;;;;5.07;2.90;;;20.20;99.90;;;;;;5115856;28;20172;-74
2023/09/29 04:11:21;;;;;;;2.90;2.40;;;20.30;99.90;;;;;;5114744;28;20155;-74
2023/09/29 04:13:47;;;;;;;4.05;2.80;;;20.30;99.90;;;;;;5115769;27;20253;-74
2023/09/29 04:16:14;;;;;;;3.25;2.72;;;20.30;99.90;;;;;;5115231;28;20658;-73
2023/09/29 04:18:40;;;;;;;3.15;2.33;;;20.40;99.90;;;;;;5115881;28;20183;-73
2023/09/29 04:21:11;;;;;;;5.90;2.58;;;20.40;99.90;;;;;;5115654;28;20547;-73
2023/09/29 04:23:36;;;;;;;3.13;2.40;;;20.40;99.90;;;;;;5114442;28;20586;-74
2023/09/29 04:26:02;;;;;;;5.72;2.60;;;20.50;98.50;;;;;;5116067;28;20217;-73
2023/09/29 04:28:28;;;;;;;3.30;2.65;;;20.50;99.90;;;;;;5115626;28;20199;-73
2023/09/29 04:30:53;;;;;;;2.92;2.63;;;20.50;98.60;;;;;;5115069;28;20217;-74
2023/09/29 04:33:19;;;;;;;5.07;2.50;;;20.60;94.80;;;;;;5115315;28;20176;-74
2023/09/29 04:35:45;;;;;;;4.03;2.60;;;20.70;91.60;;;;;;5115398;28;20619;-74
2023/09/29 04:38:11;;;;;;;3.00;2.35;;;20.70;92.80;;;;;;5115520;28;20258;-74
2023/09/29 04:40:37;;;;;;;3.22;2.55;;;20.80;90.70;;;;;;5115806;27;20256;-73
2023/09/29 04:43:04;;;;;;;4.30;2.88;;;20.80;87.30;;;;;;5114335;28;20172;-74
2023/09/29 04:45:30;;;;;;;3.55;2.80;;;20.90;85.40;;;;;;5114854;28;20212;-74
2023/09/29 04:47:58;;;;;;;4.10;2.72;;;20.80;87.20;;;;;;5115283;28;20207;-74
2023/09/29 04:50:23;;;;;;;2.90;2.63;;;20.80;89.80;;;;;;5114820;28;20175;-74
2023/09/29 04:52:49;;;;;;;5.00;2.80;;;20.80;89.70;;;;;;5114619;28;20220;-74
2023/09/29 04:55:15;;;;;;;6.20;2.55;;;20.80;89.10;;;;;;5114032;28;20178;-75
2023/09/29 04:57:41;;;;;;;3.72;2.60;;;20.80;90.80;;;;;;5114936;28;20175;-74
2023/09/29 05:00:07;;;;;;;2.95;2.65;;;20.80;88.60;;;;;;5113243;28;20639;-74
2023/09/29 05:02:33;;;;;;;4.50;2.80;;;20.70;90.80;;;;;;5114807;28;20170;-74
2023/09/29 05:04:59;;;;;;;3.47;2.40;;;20.70;93.00;;;;;;5114897;28;20596;-75
2023/09/29 05:07:24;;;;;;;4.35;2.50;;;20.70;92.00;;;;;;5114833;28;20213;-74
2023/09/29 05:09:50;;;;;;;4.95;2.97;;;20.70;94.00;;;;;;5114316;28;20229;-74
2023/09/29 05:12:16;;;;;;;7.65;3.20;;;20.60;94.00;;;;;;5114522;28;20607;-73
2023/09/29 05:14:41;;;;;;;3.50;3.00;;;20.60;97.60;;;;;;5114402;28;20159;-74
2023/09/29 05:17:07;;;;;;;3.47;2.88;;;20.50;98.60;;;;;;5114561;28;20190;-74
2023/09/29 05:19:33;;;;;;;4.10;2.65;;;20.50;98.20;;;;;;5114585;28;20666;-74
2023/09/29 05:21:59;;;;;;;4.65;2.90;;;20.50;99.10;;;;;;5113484;28;20222;-74
2023/09/29 05:24:25;;;;;;;4.35;3.25;;;20.50;99.90;;;;;;5114190;28;20174;-74
2023/09/29 05:26:50;;;;;;;3.47;2.75;;;20.50;99.90;;;;;;5114189;28;20191;-75
2023/09/29 05:29:16;;;;;;;3.33;2.80;;;20.40;99.90;;;;;;5113268;28;20183;-74
2023/09/29 05:31:42;;;;;;;7.47;3.20;;;20.40;99.90;;;;;;5113929;28;20250;-74
2023/09/29 05:34:08;;;;;;;2.70;2.50;;;20.40;99.90;;;;;;5114287;28;20254;-74
2023/09/29 05:36:33;;;;;;;5.97;2.90;;;20.40;99.90;;;;;;5113936;28;20246;-75
2023/09/29 05:38:59;;;;;;;6.93;3.28;;;20.40;99.90;;;;;;5113530;28;20186;-75
2023/09/29 05:41:24;;;;;;;5.00;2.83;;;20.40;99.90;;;;;;5113563;28;20630;-74
2023/09/29 05:43:50;;;;;;;9.40;3.28;;;20.40;99.90;;;;;;5113485;28;20172;-74
2023/09/29 05:46:16;;;;;;;6.72;2.92;;;20.40;99.90;;;;;;5113444;28;20175;-74
2023/09/29 05:48:42;;;;;;;8.05;3.28;;;20.50;99.90;;;;;;5113613;28;20256;-73
2023/09/29 05:51:07;;;;;;;6.95;3.00;;;20.50;99.90;;;;;;5113572;28;20578;-74
2023/09/29 05:53:33;;;;;;;9.15;3.15;;;20.50;99.90;;;;;;5111549;28;20652;-74
2023/09/29 05:56:06;;;;;;;18.75;3.95;;;20.60;98.90;;;;;;5113181;28;20246;-74
2023/09/29 05:58:32;;;;;;;8.00;2.90;;;20.60;99.90;;;;;;5113588;28;20163;-74
2023/09/29 06:01:05;;;;;;;5.00;3.53;;;20.60;97.60;;;;;;5113196;28;20168;-74
2023/09/29 06:03:31;;;;;;;7.15;3.10;;;20.60;99.20;;;;;;5113249;28;20209;-75
2023/09/29 06:05:56;;;;;;;7.95;3.13;;;20.60;97.40;;;;;;5113572;28;20563;-75
2023/09/29 06:08:23;;;;;;;6.90;3.10;;;20.70;95.80;;;;;;5112983;28;20233;-74
2023/09/29 06:10:49;;;;;;;8.55;3.30;;;20.70;95.50;;;;;;5112065;28;20231;-75
2023/09/29 06:13:15;;;;;;;4.65;3.28;;;20.80;93.50;;;;;;5113021;28;20317;-75
2023/09/29 06:15:40;;;;;;;8.07;3.65;;;20.80;93.00;;;;;;5112415;28;20183;-74
2023/09/29 06:18:06;;;;;;;8.07;3.53;;;20.80;92.70;;;;;;5113409;28;20178;-75
2023/09/29 06:20:31;;;;;;;9.88;3.47;;;20.90;90.20;;;;;;5112787;28;20163;-74
2023/09/29 06:22:57;;;;;;;3.42;2.75;;;21.00;90.00;;;;;;5112651;28;20651;-74
2023/09/29 06:25:23;;;;;;;6.75;2.70;;;21.10;79.40;;;;;;5112574;28;20163;-75
2023/09/29 06:27:48;;;;;;;18.35;3.72;;;21.10;74.50;;;;;;5112966;28;20275;-74
2023/09/29 06:30:14;;;;;;;10.63;3.20;;;21.10;78.30;;;;;;5112567;28;20505;-74
2023/09/29 06:32:41;;;;;;;4.75;3.03;;;21.00;80.70;;;;;;5112202;28;20168;-74
2023/09/29 06:35:07;;;;;;;8.48;3.38;;;21.10;74.80;;;;;;5111873;28;20171;-73
2023/09/29 06:37:32;;;;;;;10.40;3.35;;;21.10;76.60;;;;;;5112910;28;20171;-74
2023/09/29 06:39:58;;;;;;;7.00;3.40;;;21.10;73.30;;;;;;5111682;28;20205;-75
2023/09/29 06:42:24;;;;;;;8.30;2.92;;;21.10;78.20;;;;;;5112897;28;20179;-75
2023/09/29 06:44:49;;;;;;;10.88;3.30;;;21.10;78.70;;;;;;5112404;28;20527;-75
2023/09/29 06:47:15;;;;;;;9.25;2.75;;;21.20;79.00;;;;;;5110337;28;20202;-75
2023/09/29 06:49:40;;;;;;;9.43;3.47;;;21.20;72.40;;;;;;5112524;28;20168;-74
2023/09/29 06:52:06;;;;;;;8.48;3.28;;;21.20;72.40;;;;;;5112337;28;20189;-75
2023/09/29 06:54:32;;;;;;;6.88;3.42;;;21.20;75.60;;;;;;5110397;28;20247;-75
2023/09/29 06:56:57;;;;;;;10.55;3.50;;;21.20;76.70;;;;;;5112728;28;20630;-75
2023/09/29 06:59:23;;;;;;;9.10;3.70;;;21.20;75.00;;;;;;5112669;28;20171;-74
2023/09/29 07:01:49;;;;;;;8.05;3.55;;;21.30;67.00;;;;;;5112248;28;20239;-75
2023/09/29 07:04:14;;;;;;;5.30;3.33;;;21.60;56.80;;;;;;5112404;28;20674;-75
2023/09/29 07:06:40;;;;;;;8.05;3.50;;;22.00;42.30;;;;;;5110648;28;20178;-74
2023/09/29 07:09:07;;;;;;;6.97;3.15;;;22.30;28.10;;;;;;5112118;28;20206;-75
2023/09/29 07:11:33;;;;;;;4.82;3.08;;;22.70;15.70;;;;;;5112509;28;20670;-75
2023/09/29 07:13:58;;;;;;;9.88;3.15;;;23.10;1.00;;;;;;5112293;28;20178;-76
2023/09/29 07:16:24;;;;;;;6.63;3.03;;;23.20;1.00;;;;;;5112156;28;20187;-75
2023/09/29 07:18:49;;;;;;;6.68;2.97;;;23.50;1.00;;;;;;5111218;28;20563;-75
2023/09/29 07:21:15;;;;;;;5.93;3.28;;;23.70;1.00;;;;;;5112142;28;20222;-76
2023/09/29 07:23:41;;;;;;;6.07;3.03;;;23.70;1.00;;;;;;5112203;28;20250;-75
2023/09/29 07:26:06;;;;;;;5.38;3.10;;;24.00;1.00;;;;;;5112556;28;20199;-76
2023/09/29 07:28:33;;;;;;;4.18;2.95;;;23.90;1.00;;;;;;5111173;28;20211;-74
2023/09/29 07:31:17;;;;;;;5.13;3.00;;;24.20;1.00;;;;;;5115154;28;20226;-75
2023/09/29 07:33:42;;;;;;;6.53;3.05;;;24.40;1.00;;;;;;5112608;28;20207;-75
2023/09/29 07:36:08;;;;;;;3.72;2.95;;;24.30;1.00;;;;;;5112385;28;20163;-75
2023/09/29 07:38:34;;;;;;;5.93;3.15;;;24.10;1.00;;;;;;5111759;28;20179;-74
2023/09/29 07:41:01;;;;;;;7.18;3.08;;;24.70;1.00;;;;;;5112692;28;20163;-74
2023/09/29 07:43:27;;;;;;;9.52;3.40;;;24.90;1.00;;;;;;5112286;28;20171;-74
2023/09/29 07:45:53;;;;;;;9.68;3.58;;;24.70;1.00;;;;;;5114176;28;20216;-74
2023/09/29 07:48:19;;;;;;;5.60;3.47;;;24.30;1.00;;;;;;5116018;28;20207;-74
2023/09/29 07:50:45;;;;;;;7.22;3.58;;;24.50;1.00;;;;;;5115832;28;20250;-74
2023/09/29 07:53:11;;;;;;;9.23;3.00;;;24.40;1.00;;;;;;5116000;28;20191;-74
2023/09/29 07:55:37;;;;;;;6.80;3.17;;;25.00;1.00;;;;;;5116135;28;20182;-74
2023/09/29 07:58:02;;;;;;;5.53;3.10;;;25.50;1.00;;;;;;5116469;28;20283;-75
2023/09/29 08:00:28;;;;;;;8.13;3.30;;;25.80;1.00;;;;;;5115942;28;20622;-75
2023/09/29 08:02:54;;;;;;;10.48;3.40;;;26.10;99.90;;;;;;5115545;27;20179;-75
2023/09/29 08:05:20;;;;;;;9.00;3.35;;;26.50;99.90;;;;;;5116185;28;20224;-74
2023/09/29 08:07:45;;;;;;;8.18;3.47;;;26.80;1.00;;;;;;5115402;28;20209;-74
2023/09/29 08:10:11;;;;;;;7.28;3.00;;;26.20;1.00;;;;;;5115727;28;20637;-74
2023/09/29 08:12:37;;;;;;;6.25;3.63;;;26.10;99.90;;;;;;5115708;28;20186;-74
2023/09/29 08:15:08;;;;;;;5.93;3.53;;;26.70;1.00;;;;;;5115245;28;20168;-75
2023/09/29 08:17:33;;;;;;;5.68;3.33;;;26.80;1.00;;;;;;5116028;28;20175;-75
2023/09/29 08:19:59;;;;;;;6.38;3.40;;;26.70;99.90;;;;;;5115658;28;20638;-75
2023/09/29 08:22:25;;;;;;;7.07;3.50;;;26.60;1.00;;;;;;5115380;28;20219;-75
2023/09/29 08:24:50;;;;;;;7.15;3.67;;;26.50;1.00;;;;;;5115330;28;20200;-74
2023/09/29 08:27:16;;;;;;;12.30;3.90;;;25.30;1.00;;;;;;5115254;28;20199;-73
2023/09/29 08:29:42;;;;;;;7.22;3.17;;;24.40;1.00;;;;;;5115588;28;20653;-75
2023/09/29 08:32:07;;;;;;;6.05;3.58;;;23.80;1.00;;;;;;5115300;28;20171;-74
2023/09/29 08:34:34;;;;;;;9.75;3.85;;;23.60;1.00;;;;;;5115197;28;20615;-74
2023/09/29 08:37:00;;;;;;;8.93;4.05;;;23.40;1.00;;;;;;5114929;28;20159;-75
2023/09/29 08:39:25;;;;;;;8.90;3.95;;;23.00;1.00;;;;;;5115401;28;20201;-74
2023/09/29 08:42:25;;;;;;;8.82;3.83;;;22.90;1.00;;;;;;5114767;28;20308;-74
2023/09/29 08:44:52;;;;;;;6.53;3.60;;;22.70;4.20;;;;;;5115411;28;20197;-74
2023/09/29 08:47:25;;;;;;;8.45;3.97;;;22.50;15.00;;;;;;5114637;28;20183;-73
2023/09/29 08:49:50;;;;;;;8.85;3.90;;;22.40;21.70;;;;;;5115136;28;20661;-75
2023/09/29 08:52:18;;;;;;;8.77;4.25;;;22.30;21.00;;;;;;5114335;28;20179;-74
2023/09/29 08:54:44;;;;;;;8.73;3.88;;;22.20;34.10;;;;;;5114590;28;20226;-75
2023/09/29 08:57:10;;;;;;;9.15;3.85;;;22.10;37.50;;;;;;5113884;28;20178;-75
2023/09/29 08:59:39;;;;;;;8.35;4.07;;;22.10;42.70;;;;;;5114597;28;20175;-74
2023/09/29 09:02:04;;;;;;;11.60;4.18;;;22.50;30.40;;;;;;5114239;28;20469;-75
2023/09/29 09:04:30;;;;;;;5.93;3.53;;;22.70;10.10;;;;;;5114913;28;20164;-75
2023/09/29 09:06:56;;;;;;;6.93;4.10;;;22.70;10.50;;;;;;5113910;28;20590;-74
2023/09/29 09:09:23;;;;;;;6.50;3.92;;;22.70;8.70;;;;;;5114156;28;20201;-74
2023/09/29 09:11:49;;;;;;;10.80;4.00;;;22.70;6.00;;;;;;5112597;28;20168;-74
2023/09/29 09:14:15;;;;;;;5.90;3.65;;;22.60;5.80;;;;;;5114217;28;20169;-74
2023/09/29 09:16:41;;;;;;;7.97;3.85;;;22.60;7.70;;;;;;5114239;28;20653;-75
2023/09/29 09:19:14;;;;;;;10.80;3.95;;;22.60;9.90;;;;;;5114227;28;20171;-75
2023/09/29 09:21:42;;;;;;;7.05;3.95;;;22.50;18.60;;;;;;5114286;28;20218;-76
2023/09/29 09:24:18;;;;;;;7.05;3.90;;;22.50;33.60;;;;;;5114105;28;20167;-75
2023/09/29 09:26:46;;;;;;;7.57;3.85;;;22.10;57.60;;;;;;5113644;27;20624;-75
2023/09/29 09:29:15;;;;;;;8.48;4.22;;;21.80;92.10;;;;;;5114171;28;20256;-75
2023/09/29 09:31:45;;;;;;;7.43;3.92;;;21.50;99.90;;;;;;5112151;28;20226;-76
2023/09/29 09:34:12;;;;;;;6.88;3.80;;;21.20;99.90;;;;;;5113436;28;20178;-76
2023/09/29 09:37:10;;;;;;;6.75;4.00;;;20.90;99.90;;;;;;5114093;28;20221;-74
2023/09/29 09:39:38;;;;;;;6.28;3.90;;;20.80;99.90;;;;;;5112064;28;20175;-75
2023/09/29 09:42:05;;;;;;;6.32;3.92;;;20.80;99.90;;;;;;5113519;28;20206;-75
2023/09/29 09:44:32;;;;;;;5.78;3.72;;;20.70;99.90;;;;;;5114151;28;20257;-75
2023/09/29 09:47:04;;;;;;;8.85;3.80;;;20.70;99.90;;;;;;5113869;28;20225;-75
2023/09/29 09:49:41;;;;;;;5.97;4.15;;;20.60;99.90;;;;;;5113796;28;20287;-76
2023/09/29 09:52:12;;;;;;;6.50;3.97;;;20.60;99.90;;;;;;5113883;28;20269;-75
2023/09/29 09:54:50;;;;;;;7.15;4.13;;;20.60;99.90;;;;;;5113851;28;20183;-75
2023/09/29 09:57:35;;;;;;;7.43;3.97;;;20.80;99.90;;;;;;5114019;28;20171;-75
2023/09/29 10:00:10;;;;;;;7.47;3.42;;;20.80;99.90;;;;;;5113414;28;20171;-76
2023/09/29 10:02:40;;;;;;;5.50;3.40;;;20.80;99.90;;;;;;5113296;28;20533;-75
2023/09/29 10:05:17;;;;;;;6.07;3.40;;;21.00;99.90;;;;;;5113273;28;20174;-75
2023/09/29 10:07:46;;;;;;;5.68;3.50;;;21.10;99.90;;;;;;5113853;28;20214;-75
2023/09/29 10:10:23;;;;;;;5.65;3.55;;;21.20;99.90;;;;;;5113078;28;20263;-76
2023/09/29 10:12:54;;;;;;;6.90;3.70;;;21.40;99.90;;;;;;5113984;28;20227;-76
2023/09/29 10:15:21;;;;;;;7.13;4.03;;;21.40;99.90;;;;;;5113681;28;20184;-76
2023/09/29 10:17:47;;;;;;;5.28;3.90;;;21.30;99.90;;;;;;5112938;28;20175;-75
2023/09/29 10:20:23;;;;;;;5.57;3.45;;;21.40;99.90;;;;;;5113347;28;20216;-76
2023/09/29 10:22:54;;;;;;;5.22;3.38;;;21.50;99.90;;;;;;5111579;28;20191;-75
2023/09/29 10:25:23;;;;;;;5.95;3.58;;;21.50;99.90;;;;;;5113657;28;20186;-75
2023/09/29 10:27:59;;;;;;;6.85;3.55;;;21.60;99.90;;;;;;5113613;28;20234;-75
2023/09/29 10:30:26;;;;;;;7.95;3.88;;;21.40;99.90;;;;;;5113104;28;20257;-75
2023/09/29 10:33:11;;;;;;;5.85;3.33;;;21.30;99.90;;;;;;5112503;28;20175;-75
2023/09/29 10:35:45;;;;;;;5.95;3.58;;;21.20;99.90;;;;;;5113041;28;20518;-75
2023/09/29 10:38:31;;;;;;;7.93;4.00;;;21.20;99.90;;;;;;5112549;28;20160;-75
2023/09/29 10:41:00;;;;;;;5.55;3.65;;;20.90;99.90;;;;;;5115624;28;20183;-76
2023/09/29 10:43:26;;;;;;;6.13;3.90;;;20.60;99.90;;;;;;5112855;28;20178;-74
2023/09/29 10:45:52;;;;;;;6.40;3.83;;;20.60;99.90;;;;;;5112889;28;20216;-77
2023/09/29 10:48:21;;;;;;;6.05;3.63;;;20.60;99.90;;;;;;5112312;28;20676;-76
2023/09/29 10:50:51;;;;;;;6.78;3.67;;;20.50;99.90;;;;;;5112985;28;20171;-76
2023/09/29 10:53:21;;;;;;;6.35;3.53;;;20.50;99.90;;;;;;5111648;28;20198;-75
2023/09/29 10:55:52;;;;;;;6.45;4.03;;;20.60;99.90;;;;;;5112751;28;20194;-74
2023/09/29 10:58:18;;;;;;;10.65;4.00;;;20.60;99.90;;;;;;5112919;28;20167;-75
2023/09/29 11:00:47;;;;;;;7.63;3.92;;;20.60;99.90;;;;;;5110789;28;20163;-76
2023/09/29 11:03:17;;;;;;;5.95;4.07;;;20.60;99.90;;;;;;5112484;28;20178;-76
2023/09/29 11:05:51;;;;;;;7.72;3.97;;;20.60;99.90;;;;;;5112642;28;20198;-76
2023/09/29 11:08:21;;;;;;;10.23;5.25;;;20.70;99.90;;;;;;5112723;28;20211;-75
2023/09/29 11:11:00;;;;;;;8.77;3.88;;;20.80;99.90;;;;;;5112772;28;20175;-74
2023/09/29 11:13:27;;;;;;;7.28;4.30;;;20.80;99.90;;;;;;5112813;28;20179;-75
2023/09/29 11:15:54;;;;;;;11.50;4.80;;;20.80;99.90;;;;;;5112566;28;20182;-74
2023/09/29 11:18:32;;;;;;;7.38;4.40;;;20.90;99.90;;;;;;5112751;28;20619;-76
2023/09/29 11:20:59;;;;;;;10.70;4.43;;;20.80;99.90;;;;;;5114475;28;20244;-75
2023/09/29 11:23:28;;;;;;;8.20;4.28;;;20.80;99.90;;;;;;5116258;28;20186;-76
2023/09/29 11:25:59;;;;;;;10.80;5.07;;;20.60;99.90;;;;;;5116372;28;20159;-75
2023/09/29 11:28:28;;;;;;;9.32;5.15;;;20.40;99.90;;;;;;5116842;28;20281;-77
2023/09/29 11:30:54;;;;;;;12.52;5.22;;;20.20;99.90;;;;;;5115899;28;20266;-75
2023/09/29 11:33:21;;;;;;;9.48;5.22;;;20.20;99.90;;;;;;5116130;28;20623;-76
2023/09/29 11:35:46;;;;;;;8.98;5.20;;;20.20;99.90;;;;;;5116572;28;20194;-75
2023/09/29 11:38:19;;;;;;;10.40;5.47;;;20.00;99.90;;;;;;5115980;28;20214;-77
2023/09/29 11:40:49;;;;;;;6.55;4.47;;;20.10;99.90;;;;;;5116204;28;20179;-76
2023/09/29 11:43:15;;;;;;;10.00;5.00;;;20.00;99.90;;;;;;5116316;28;20179;-77
2023/09/29 11:45:41;;;;;;;10.18;5.80;;;19.80;99.90;;;;;;5116447;28;20645;-78
2023/09/29 11:48:08;;;;;;;10.27;5.43;;;19.80;99.90;;;;;;5116609;28;20211;-75
2023/09/29 11:50:33;;;;;;;8.07;4.63;;;19.60;99.90;;;;;;5116250;28;20174;-75
2023/09/29 11:53:03;;;;;;;9.90;4.03;;;19.50;99.90;;;;;;5115933;28;20167;-75
2023/09/29 11:55:29;;;;;;;8.13;4.05;;;19.50;99.90;;;;;;5115902;27;20613;-75
2023/09/29 11:57:55;;;;;;;5.80;4.18;;;19.40;99.90;;;;;;5116006;28;20258;-75
2023/09/29 12:00:21;;;;;;;5.97;3.97;;;19.50;99.90;;;;;;5116267;28;20278;-75
2023/09/29 12:02:47;;;;;;;8.27;3.88;;;19.60;99.90;;;;;;5115803;28;20614;-75
2023/09/29 12:05:12;;;;;;;8.75;4.75;;;19.70;99.90;;;;;;5116124;28;20167;-74
2023/09/29 12:07:38;;;;;;;9.27;4.70;;;19.70;99.90;;;;;;5115389;28;20210;-75
2023/09/29 12:10:04;;;;;;;6.97;4.20;;;19.60;99.90;;;;;;5115485;28;20171;-75
2023/09/29 12:12:32;;;;;;;4.97;3.70;;;19.50;99.90;;;;;;5115172;28;20190;-76
2023/09/29 12:14:58;;;;;;;4.22;3.08;;;19.40;99.90;;;;;;5114973;28;20692;-76
2023/09/29 12:17:25;;;;;;;2.38;2.15;;;19.40;99.90;;;;;;5115668;28;20258;-76
2023/09/29 12:19:50;;;;;;;4.95;2.20;;;19.40;99.90;;;;;;5115851;28;20160;-76
2023/09/29 12:22:17;;;;;;;4.15;2.25;;;19.40;99.90;;;;;;5113633;28;20222;-76
2023/09/29 12:24:43;;;;;;;2.25;1.70;;;19.60;99.90;;;;;;5115458;28;20159;-78
2023/09/29 12:27:09;;;;;;;3.15;1.52;;;19.80;99.90;;;;;;5114242;28;20240;-75
2023/09/29 12:29:35;;;;;;;4.65;1.60;;;19.80;99.90;;;;;;5114751;27;20167;-76
2023/09/29 12:32:01;;;;;;;5.22;2.10;;;19.80;99.90;;;;;;5114168;28;20266;-75
2023/09/29 12:34:32;;;;;;;5.10;1.88;;;19.80;99.90;;;;;;5115664;28;20249;-76
2023/09/29 12:37:01;;;;;;;5.75;2.30;;;20.00;99.90;;;;;;5114851;28;20155;-77
2023/09/29 12:39:28;;;;;;;4.07;2.67;;;19.90;99.90;;;;;;5115098;28;20208;-75
2023/09/29 12:41:55;;;;;;;2.47;2.25;;;19.90;99.90;;;;;;5115639;28;20197;-76
2023/09/29 12:44:20;;;;;;;4.32;2.63;;;19.90;99.90;;;;;;5114925;27;20193;-76
2023/09/29 12:46:46;;;;;;;7.75;2.95;;;20.00;99.90;;;;;;5115119;28;20159;-75
2023/09/29 12:49:11;;;;;;;5.80;3.17;;;20.00;99.90;;;;;;5115343;28;20179;-76
2023/09/29 12:51:37;;;;;;;5.72;3.05;;;19.90;99.90;;;;;;5114616;28;20254;-76
2023/09/29 12:54:03;;;;;;;5.10;3.47;;;19.80;99.90;;;;;;5113790;28;20187;-76